sensor_id;sensor_type;location;lat;lon;timestamp;P1;durP1;ratioP1;P2;durP2;ratioP2
21567;SDS011;10944;42.590;12.630;2022-12-24T00:01:09;48.53;;;33.08;;
21567;SDS011;10944;42.590;12.630;2022-12-24T00:03:35;47.10;;;31.02;;
21567;SDS011;10944;42.590;12.630;2022-12-24T00:06:05;48.00;;;30.00;;
21567;SDS011;10944;42.590;12.630;2022-12-24T00:08:32;41.08;;;27.23;;
21567;SDS011;10944;42.590;12.630;2022-12-24T00:10:58;37.53;;;25.95;;
21567;SDS011;10944;42.590;12.630;2022-12-24T00:13:24;38.67;;;25.40;;
21567;SDS011;10944;42.590;12.630;2022-12-24T00:15:50;33.73;;;24.10;;
21567;SDS011;10944;42.590;12.630;2022-12-24T00:18:16;31.63;;;19.70;;
21567;SDS011;10944;42.590;12.630;2022-12-24T00:20:45;30.53;;;19.23;;
21567;SDS011;10944;42.590;12.630;2022-12-24T00:23:12;28.63;;;17.57;;
21567;SDS011;10944;42.590;12.630;2022-12-24T00:25:38;27.43;;;17.73;;
21567;SDS011;10944;42.590;12.630;2022-12-24T00:28:04;25.27;;;16.23;;
21567;SDS011;10944;42.590;12.630;2022-12-24T00:30:29;24.43;;;15.13;;
21567;SDS011;10944;42.590;12.630;2022-12-24T00:32:55;21.80;;;14.40;;
21567;SDS011;10944;42.590;12.630;2022-12-24T00:35:21;24.23;;;14.75;;
21567;SDS011;10944;42.590;12.630;2022-12-24T00:37:47;21.87;;;14.13;;
21567;SDS011;10944;42.590;12.630;2022-12-24T00:40:13;19.63;;;13.05;;
21567;SDS011;10944;42.590;12.630;2022-12-24T00:42:40;20.58;;;13.05;;
21567;SDS011;10944;42.590;12.630;2022-12-24T00:45:06;20.52;;;12.85;;
21567;SDS011;10944;42.590;12.630;2022-12-24T00:47:32;19.17;;;12.00;;
21567;SDS011;10944;42.590;12.630;2022-12-24T00:49:58;20.50;;;11.70;;
21567;SDS011;10944;42.590;12.630;2022-12-24T00:52:23;19.93;;;11.77;;
21567;SDS011;10944;42.590;12.630;2022-12-24T00:54:49;19.30;;;10.63;;
21567;SDS011;10944;42.590;12.630;2022-12-24T00:57:15;17.20;;;11.07;;
21567;SDS011;10944;42.590;12.630;2022-12-24T00:59:41;21.13;;;10.63;;
21567;SDS011;10944;42.590;12.630;2022-12-24T01:02:06;20.50;;;11.07;;
21567;SDS011;10944;42.590;12.630;2022-12-24T01:04:32;15.82;;;10.07;;
21567;SDS011;10944;42.590;12.630;2022-12-24T01:07:16;15.02;;;10.43;;
21567;SDS011;10944;42.590;12.630;2022-12-24T01:09:42;18.10;;;10.30;;
21567;SDS011;10944;42.590;12.630;2022-12-24T01:12:07;19.43;;;10.90;;
21567;SDS011;10944;42.590;12.630;2022-12-24T01:14:33;18.10;;;11.50;;
21567;SDS011;10944;42.590;12.630;2022-12-24T01:16:59;19.23;;;12.20;;
21567;SDS011;10944;42.590;12.630;2022-12-24T01:19:24;17.90;;;12.30;;
21567;SDS011;10944;42.590;12.630;2022-12-24T01:21:50;18.07;;;12.57;;
21567;SDS011;10944;42.590;12.630;2022-12-24T01:24:17;20.73;;;12.90;;
21567;SDS011;10944;42.590;12.630;2022-12-24T01:26:42;22.00;;;13.03;;
21567;SDS011;10944;42.590;12.630;2022-12-24T01:29:08;19.13;;;12.17;;
21567;SDS011;10944;42.590;12.630;2022-12-24T01:31:34;20.10;;;12.60;;
21567;SDS011;10944;42.590;12.630;2022-12-24T01:33:59;19.73;;;11.70;;
21567;SDS011;10944;42.590;12.630;2022-12-24T01:36:25;18.83;;;11.87;;
21567;SDS011;10944;42.590;12.630;2022-12-24T01:38:51;17.60;;;11.30;;
21567;SDS011;10944;42.590;12.630;2022-12-24T01:41:18;19.13;;;11.80;;
21567;SDS011;10944;42.590;12.630;2022-12-24T01:46:47;18.93;;;11.50;;
21567;SDS011;10944;42.590;12.630;2022-12-24T01:49:15;20.10;;;12.20;;
21567;SDS011;10944;42.590;12.630;2022-12-24T01:51:47;20.47;;;12.47;;
21567;SDS011;10944;42.590;12.630;2022-12-24T01:54:18;20.97;;;11.73;;
21567;SDS011;10944;42.590;12.630;2022-12-24T01:56:55;21.47;;;11.70;;
21567;SDS011;10944;42.590;12.630;2022-12-24T01:59:25;19.27;;;11.60;;
21567;SDS011;10944;42.590;12.630;2022-12-24T02:01:50;18.33;;;10.77;;
21567;SDS011;10944;42.590;12.630;2022-12-24T02:04:37;20.83;;;11.03;;
21567;SDS011;10944;42.590;12.630;2022-12-24T02:07:08;17.43;;;10.80;;
21567;SDS011;10944;42.590;12.630;2022-12-24T02:09:33;17.70;;;10.53;;
21567;SDS011;10944;42.590;12.630;2022-12-24T02:12:00;18.37;;;10.30;;
21567;SDS011;10944;42.590;12.630;2022-12-24T02:14:27;21.90;;;9.90;;
21567;SDS011;10944;42.590;12.630;2022-12-24T02:19:39;15.20;;;9.40;;
21567;SDS011;10944;42.590;12.630;2022-12-24T02:28:00;16.67;;;8.77;;
21567;SDS011;10944;42.590;12.630;2022-12-24T02:30:37;14.27;;;8.10;;
21567;SDS011;10944;42.590;12.630;2022-12-24T02:33:14;13.93;;;7.13;;
21567;SDS011;10944;42.590;12.630;2022-12-24T02:38:21;15.23;;;7.97;;
21567;SDS011;10944;42.590;12.630;2022-12-24T02:41:10;17.77;;;9.27;;
21567;SDS011;10944;42.590;12.630;2022-12-24T02:43:43;15.50;;;8.23;;
21567;SDS011;10944;42.590;12.630;2022-12-24T02:46:13;13.47;;;7.10;;
21567;SDS011;10944;42.590;12.630;2022-12-24T02:48:43;11.13;;;6.67;;
21567;SDS011;10944;42.590;12.630;2022-12-24T02:51:12;14.00;;;7.17;;
21567;SDS011;10944;42.590;12.630;2022-12-24T02:53:38;12.20;;;5.70;;
21567;SDS011;10944;42.590;12.630;2022-12-24T03:07:22;15.27;;;8.87;;
21567;SDS011;10944;42.590;12.630;2022-12-24T03:12:46;20.53;;;10.83;;
21567;SDS011;10944;42.590;12.630;2022-12-24T03:15:20;16.20;;;9.97;;
21567;SDS011;10944;42.590;12.630;2022-12-24T03:17:49;17.10;;;10.07;;
21567;SDS011;10944;42.590;12.630;2022-12-24T03:20:20;16.13;;;10.70;;
21567;SDS011;10944;42.590;12.630;2022-12-24T03:22:49;15.90;;;9.83;;
21567;SDS011;10944;42.590;12.630;2022-12-24T03:25:15;20.40;;;10.27;;
21567;SDS011;10944;42.590;12.630;2022-12-24T03:27:41;17.37;;;10.00;;
21567;SDS011;10944;42.590;12.630;2022-12-24T03:30:12;14.20;;;9.00;;
21567;SDS011;10944;42.590;12.630;2022-12-24T03:32:39;16.97;;;9.33;;
21567;SDS011;10944;42.590;12.630;2022-12-24T03:35:06;13.80;;;8.13;;
21567;SDS011;10944;42.590;12.630;2022-12-24T03:37:32;14.93;;;8.23;;
21567;SDS011;10944;42.590;12.630;2022-12-24T03:39:58;14.10;;;7.93;;
21567;SDS011;10944;42.590;12.630;2022-12-24T03:42:24;12.83;;;7.83;;
21567;SDS011;10944;42.590;12.630;2022-12-24T03:44:49;16.87;;;8.47;;
21567;SDS011;10944;42.590;12.630;2022-12-24T03:47:15;13.97;;;9.27;;
21567;SDS011;10944;42.590;12.630;2022-12-24T03:49:41;15.37;;;9.70;;
21567;SDS011;10944;42.590;12.630;2022-12-24T03:52:07;17.40;;;9.73;;
21567;SDS011;10944;42.590;12.630;2022-12-24T03:54:32;17.20;;;9.93;;
21567;SDS011;10944;42.590;12.630;2022-12-24T03:56:58;16.53;;;8.50;;
21567;SDS011;10944;42.590;12.630;2022-12-24T03:59:24;14.77;;;8.80;;
21567;SDS011;10944;42.590;12.630;2022-12-24T04:01:49;16.53;;;7.80;;
21567;SDS011;10944;42.590;12.630;2022-12-24T04:04:15;14.97;;;8.47;;
21567;SDS011;10944;42.590;12.630;2022-12-24T04:06:41;13.73;;;8.83;;
21567;SDS011;10944;42.590;12.630;2022-12-24T04:09:06;15.27;;;7.87;;
21567;SDS011;10944;42.590;12.630;2022-12-24T04:11:32;13.93;;;7.80;;
21567;SDS011;10944;42.590;12.630;2022-12-24T04:13:58;16.00;;;7.73;;
21567;SDS011;10944;42.590;12.630;2022-12-24T04:16:24;11.70;;;7.50;;
21567;SDS011;10944;42.590;12.630;2022-12-24T04:18:49;13.40;;;7.90;;
21567;SDS011;10944;42.590;12.630;2022-12-24T04:21:15;18.03;;;8.33;;
21567;SDS011;10944;42.590;12.630;2022-12-24T04:23:41;11.80;;;7.73;;
21567;SDS011;10944;42.590;12.630;2022-12-24T04:26:08;18.20;;;8.27;;
21567;SDS011;10944;42.590;12.630;2022-12-24T04:28:36;13.20;;;7.90;;
21567;SDS011;10944;42.590;12.630;2022-12-24T04:31:07;14.83;;;8.13;;
21567;SDS011;10944;42.590;12.630;2022-12-24T04:33:35;13.70;;;7.57;;
21567;SDS011;10944;42.590;12.630;2022-12-24T04:36:02;14.13;;;7.90;;
21567;SDS011;10944;42.590;12.630;2022-12-24T04:38:30;13.47;;;8.27;;
21567;SDS011;10944;42.590;12.630;2022-12-24T04:40:59;13.47;;;7.33;;
21567;SDS011;10944;42.590;12.630;2022-12-24T04:43:27;12.00;;;7.60;;
21567;SDS011;10944;42.590;12.630;2022-12-24T04:45:53;13.40;;;6.93;;
21567;SDS011;10944;42.590;12.630;2022-12-24T04:48:19;16.43;;;6.77;;
21567;SDS011;10944;42.590;12.630;2022-12-24T04:50:44;11.13;;;6.47;;
21567;SDS011;10944;42.590;12.630;2022-12-24T04:53:10;12.33;;;6.90;;
21567;SDS011;10944;42.590;12.630;2022-12-24T04:55:42;12.87;;;6.93;;
21567;SDS011;10944;42.590;12.630;2022-12-24T04:58:11;12.10;;;6.37;;
21567;SDS011;10944;42.590;12.630;2022-12-24T05:00:38;13.53;;;6.73;;
21567;SDS011;10944;42.590;12.630;2022-12-24T05:03:04;13.23;;;6.40;;
21567;SDS011;10944;42.590;12.630;2022-12-24T05:05:30;10.35;;;6.60;;
21567;SDS011;10944;42.590;12.630;2022-12-24T05:07:56;14.47;;;7.00;;
21567;SDS011;10944;42.590;12.630;2022-12-24T05:10:22;14.40;;;7.30;;
21567;SDS011;10944;42.590;12.630;2022-12-24T05:12:47;13.03;;;7.00;;
21567;SDS011;10944;42.590;12.630;2022-12-24T05:15:13;15.80;;;7.87;;
21567;SDS011;10944;42.590;12.630;2022-12-24T05:17:39;15.30;;;8.40;;
21567;SDS011;10944;42.590;12.630;2022-12-24T05:20:05;14.88;;;8.05;;
21567;SDS011;10944;42.590;12.630;2022-12-24T05:22:31;14.17;;;7.70;;
21567;SDS011;10944;42.590;12.630;2022-12-24T05:25:15;15.07;;;7.27;;
21567;SDS011;10944;42.590;12.630;2022-12-24T05:27:59;14.07;;;7.57;;
21567;SDS011;10944;42.590;12.630;2022-12-24T05:30:25;18.90;;;7.20;;
21567;SDS011;10944;42.590;12.630;2022-12-24T05:32:51;14.80;;;7.40;;
21567;SDS011;10944;42.590;12.630;2022-12-24T05:35:16;12.73;;;7.23;;
21567;SDS011;10944;42.590;12.630;2022-12-24T05:37:42;11.63;;;6.80;;
21567;SDS011;10944;42.590;12.630;2022-12-24T05:40:08;14.10;;;6.27;;
21567;SDS011;10944;42.590;12.630;2022-12-24T05:42:34;12.63;;;6.17;;
21567;SDS011;10944;42.590;12.630;2022-12-24T05:44:59;11.20;;;6.23;;
21567;SDS011;10944;42.590;12.630;2022-12-24T05:47:25;12.93;;;6.40;;
21567;SDS011;10944;42.590;12.630;2022-12-24T05:49:51;14.43;;;6.13;;
21567;SDS011;10944;42.590;12.630;2022-12-24T05:52:16;13.90;;;6.43;;
21567;SDS011;10944;42.590;12.630;2022-12-24T05:54:42;14.30;;;6.73;;
21567;SDS011;10944;42.590;12.630;2022-12-24T05:57:08;12.63;;;6.30;;
21567;SDS011;10944;42.590;12.630;2022-12-24T05:59:33;12.63;;;7.33;;
21567;SDS011;10944;42.590;12.630;2022-12-24T06:01:59;16.37;;;7.50;;
21567;SDS011;10944;42.590;12.630;2022-12-24T06:04:25;14.17;;;7.83;;
21567;SDS011;10944;42.590;12.630;2022-12-24T06:06:51;13.57;;;7.40;;
21567;SDS011;10944;42.590;12.630;2022-12-24T06:09:16;16.58;;;7.63;;
21567;SDS011;10944;42.590;12.630;2022-12-24T06:11:42;12.20;;;7.30;;
21567;SDS011;10944;42.590;12.630;2022-12-24T06:14:08;14.17;;;7.03;;
21567;SDS011;10944;42.590;12.630;2022-12-24T06:16:34;10.70;;;6.60;;
21567;SDS011;10944;42.590;12.630;2022-12-24T06:18:59;18.67;;;6.47;;
21567;SDS011;10944;42.590;12.630;2022-12-24T06:21:25;10.17;;;6.10;;
21567;SDS011;10944;42.590;12.630;2022-12-24T06:23:51;9.95;;;5.53;;
21567;SDS011;10944;42.590;12.630;2022-12-24T06:26:18;10.30;;;5.07;;
21567;SDS011;10944;42.590;12.630;2022-12-24T06:28:46;10.93;;;4.80;;
21567;SDS011;10944;42.590;12.630;2022-12-24T06:31:14;8.33;;;4.03;;
21567;SDS011;10944;42.590;12.630;2022-12-24T06:33:41;7.83;;;4.20;;
21567;SDS011;10944;42.590;12.630;2022-12-24T06:36:08;7.53;;;4.10;;
21567;SDS011;10944;42.590;12.630;2022-12-24T06:38:38;8.48;;;3.90;;
21567;SDS011;10944;42.590;12.630;2022-12-24T06:41:04;7.65;;;4.07;;
21567;SDS011;10944;42.590;12.630;2022-12-24T06:43:31;7.18;;;3.40;;
21567;SDS011;10944;42.590;12.630;2022-12-24T06:45:59;9.23;;;3.87;;
21567;SDS011;10944;42.590;12.630;2022-12-24T06:48:24;9.23;;;4.13;;
21567;SDS011;10944;42.590;12.630;2022-12-24T06:50:50;10.98;;;4.10;;
21567;SDS011;10944;42.590;12.630;2022-12-24T06:53:16;9.33;;;4.50;;
21567;SDS011;10944;42.590;12.630;2022-12-24T06:55:42;13.33;;;5.50;;
21567;SDS011;10944;42.590;12.630;2022-12-24T06:58:07;9.63;;;5.87;;
21567;SDS011;10944;42.590;12.630;2022-12-24T07:00:33;13.97;;;6.30;;
21567;SDS011;10944;42.590;12.630;2022-12-24T07:02:59;10.53;;;5.80;;
21567;SDS011;10944;42.590;12.630;2022-12-24T07:05:25;10.37;;;6.10;;
21567;SDS011;10944;42.590;12.630;2022-12-24T07:07:51;10.37;;;5.47;;
21567;SDS011;10944;42.590;12.630;2022-12-24T07:10:17;10.50;;;5.47;;
21567;SDS011;10944;42.590;12.630;2022-12-24T07:12:44;11.57;;;5.33;;
21567;SDS011;10944;42.590;12.630;2022-12-24T07:15:11;12.27;;;6.03;;
21567;SDS011;10944;42.590;12.630;2022-12-24T07:17:37;10.40;;;5.33;;
21567;SDS011;10944;42.590;12.630;2022-12-24T07:20:04;11.77;;;6.13;;
21567;SDS011;10944;42.590;12.630;2022-12-24T07:22:31;14.33;;;6.03;;
21567;SDS011;10944;42.590;12.630;2022-12-24T07:24:57;8.43;;;5.23;;
21567;SDS011;10944;42.590;12.630;2022-12-24T07:27:22;9.25;;;4.90;;
21567;SDS011;10944;42.590;12.630;2022-12-24T07:29:48;10.40;;;4.68;;
21567;SDS011;10944;42.590;12.630;2022-12-24T07:32:14;10.57;;;4.80;;
21567;SDS011;10944;42.590;12.630;2022-12-24T07:34:39;11.85;;;4.68;;
21567;SDS011;10944;42.590;12.630;2022-12-24T07:37:06;13.23;;;5.47;;
21567;SDS011;10944;42.590;12.630;2022-12-24T07:39:32;8.95;;;4.75;;
21567;SDS011;10944;42.590;12.630;2022-12-24T07:41:57;11.03;;;5.23;;
21567;SDS011;10944;42.590;12.630;2022-12-24T07:44:23;9.60;;;4.57;;
21567;SDS011;10944;42.590;12.630;2022-12-24T07:46:49;9.25;;;5.25;;
21567;SDS011;10944;42.590;12.630;2022-12-24T07:49:15;12.85;;;6.93;;
21567;SDS011;10944;42.590;12.630;2022-12-24T07:51:41;26.63;;;15.70;;
21567;SDS011;10944;42.590;12.630;2022-12-24T07:54:07;27.38;;;16.52;;
21567;SDS011;10944;42.590;12.630;2022-12-24T07:56:32;28.35;;;18.00;;
21567;SDS011;10944;42.590;12.630;2022-12-24T07:58:58;28.67;;;18.77;;
21567;SDS011;10944;42.590;12.630;2022-12-24T08:01:24;28.83;;;17.90;;
21567;SDS011;10944;42.590;12.630;2022-12-24T08:03:50;27.98;;;15.77;;
21567;SDS011;10944;42.590;12.630;2022-12-24T08:06:18;16.08;;;10.00;;
21567;SDS011;10944;42.590;12.630;2022-12-24T08:08:47;20.40;;;9.05;;
21567;SDS011;10944;42.590;12.630;2022-12-24T08:11:13;15.02;;;8.88;;
21567;SDS011;10944;42.590;12.630;2022-12-24T08:13:39;16.17;;;8.68;;
21567;SDS011;10944;42.590;12.630;2022-12-24T08:16:04;14.18;;;7.68;;
21567;SDS011;10944;42.590;12.630;2022-12-24T08:18:31;13.55;;;7.25;;
21567;SDS011;10944;42.590;12.630;2022-12-24T08:20:57;17.50;;;6.93;;
21567;SDS011;10944;42.590;12.630;2022-12-24T08:23:22;14.05;;;6.90;;
21567;SDS011;10944;42.590;12.630;2022-12-24T08:25:48;14.63;;;6.68;;
21567;SDS011;10944;42.590;12.630;2022-12-24T08:28:15;12.18;;;6.32;;
21567;SDS011;10944;42.590;12.630;2022-12-24T08:30:42;11.50;;;6.07;;
21567;SDS011;10944;42.590;12.630;2022-12-24T08:33:08;15.55;;;6.80;;
21567;SDS011;10944;42.590;12.630;2022-12-24T08:35:34;13.00;;;6.55;;
21567;SDS011;10944;42.590;12.630;2022-12-24T08:38:00;17.25;;;7.32;;
21567;SDS011;10944;42.590;12.630;2022-12-24T08:40:26;13.30;;;6.85;;
21567;SDS011;10944;42.590;12.630;2022-12-24T08:42:52;13.20;;;7.20;;
21567;SDS011;10944;42.590;12.630;2022-12-24T08:45:18;12.60;;;7.05;;
21567;SDS011;10944;42.590;12.630;2022-12-24T08:47:44;14.57;;;7.10;;
21567;SDS011;10944;42.590;12.630;2022-12-24T08:50:10;18.65;;;8.27;;
21567;SDS011;10944;42.590;12.630;2022-12-24T08:52:36;17.08;;;7.10;;
21567;SDS011;10944;42.590;12.630;2022-12-24T08:55:02;64.15;;;25.52;;
21567;SDS011;10944;42.590;12.630;2022-12-24T08:57:29;22.00;;;8.25;;
21567;SDS011;10944;42.590;12.630;2022-12-24T08:59:54;14.98;;;6.47;;
21567;SDS011;10944;42.590;12.630;2022-12-24T09:02:20;13.45;;;6.30;;
21567;SDS011;10944;42.590;12.630;2022-12-24T09:04:46;13.82;;;5.32;;
21567;SDS011;10944;42.590;12.630;2022-12-24T09:07:12;13.80;;;5.78;;
21567;SDS011;10944;42.590;12.630;2022-12-24T09:09:37;14.60;;;5.57;;
21567;SDS011;10944;42.590;12.630;2022-12-24T09:22:59;12.70;;;5.82;;
21567;SDS011;10944;42.590;12.630;2022-12-24T09:25:25;9.65;;;5.22;;
21567;SDS011;10944;42.590;12.630;2022-12-24T09:27:51;14.32;;;5.35;;
21567;SDS011;10944;42.590;12.630;2022-12-24T09:30:16;13.88;;;6.38;;
21567;SDS011;10944;42.590;12.630;2022-12-24T09:32:42;12.65;;;5.00;;
21567;SDS011;10944;42.590;12.630;2022-12-24T09:35:08;8.75;;;4.15;;
21567;SDS011;10944;42.590;12.630;2022-12-24T09:37:34;9.68;;;4.40;;
21567;SDS011;10944;42.590;12.630;2022-12-24T09:39:59;12.30;;;3.67;;
21567;SDS011;10944;42.590;12.630;2022-12-24T09:45:17;10.77;;;4.65;;
21567;SDS011;10944;42.590;12.630;2022-12-24T09:47:56;10.43;;;4.10;;
21567;SDS011;10944;42.590;12.630;2022-12-24T09:50:39;9.93;;;3.80;;
21567;SDS011;10944;42.590;12.630;2022-12-24T09:55:45;13.23;;;4.55;;
21567;SDS011;10944;42.590;12.630;2022-12-24T09:58:57;10.90;;;5.10;;
21567;SDS011;10944;42.590;12.630;2022-12-24T10:01:04;15.32;;;8.13;;
21567;SDS011;10944;42.590;12.630;2022-12-24T10:03:30;20.90;;;11.68;;
21567;SDS011;10944;42.590;12.630;2022-12-24T10:06:03;25.77;;;13.32;;
21567;SDS011;10944;42.590;12.630;2022-12-24T10:08:41;19.67;;;11.30;;
21567;SDS011;10944;42.590;12.630;2022-12-24T10:11:35;21.52;;;10.60;;
21567;SDS011;10944;42.590;12.630;2022-12-24T10:17:14;34.78;;;21.08;;
21567;SDS011;10944;42.590;12.630;2022-12-24T10:22:38;30.48;;;19.77;;
21567;SDS011;10944;42.590;12.630;2022-12-24T10:25:19;31.02;;;19.65;;
21567;SDS011;10944;42.590;12.630;2022-12-24T10:27:53;28.27;;;19.80;;
21567;SDS011;10944;42.590;12.630;2022-12-24T10:30:21;25.52;;;15.70;;
21567;SDS011;10944;42.590;12.630;2022-12-24T10:32:48;23.15;;;14.27;;
21567;SDS011;10944;42.590;12.630;2022-12-24T10:37:45;22.13;;;15.52;;
21567;SDS011;10944;42.590;12.630;2022-12-24T10:40:13;29.90;;;20.45;;
21567;SDS011;10944;42.590;12.630;2022-12-24T10:42:48;36.72;;;25.58;;
21567;SDS011;10944;42.590;12.630;2022-12-24T10:45:19;36.20;;;26.02;;
21567;SDS011;10944;42.590;12.630;2022-12-24T10:47:48;36.83;;;24.40;;
21567;SDS011;10944;42.590;12.630;2022-12-24T10:50:31;34.50;;;24.52;;
21567;SDS011;10944;42.590;12.630;2022-12-24T10:53:06;39.38;;;27.88;;
21567;SDS011;10944;42.590;12.630;2022-12-24T10:55:36;38.28;;;26.67;;
21567;SDS011;10944;42.590;12.630;2022-12-24T10:58:06;33.78;;;25.33;;
21567;SDS011;10944;42.590;12.630;2022-12-24T11:00:51;30.55;;;21.50;;
21567;SDS011;10944;42.590;12.630;2022-12-24T11:05:58;28.90;;;21.45;;
21567;SDS011;10944;42.590;12.630;2022-12-24T11:08:35;28.02;;;18.88;;
21567;SDS011;10944;42.590;12.630;2022-12-24T11:11:07;34.47;;;21.27;;
21567;SDS011;10944;42.590;12.630;2022-12-24T11:18:48;35.13;;;22.85;;
21567;SDS011;10944;42.590;12.630;2022-12-24T11:21:19;46.90;;;30.95;;
21567;SDS011;10944;42.590;12.630;2022-12-24T11:23:55;45.00;;;29.08;;
21567;SDS011;10944;42.590;12.630;2022-12-24T11:26:28;38.08;;;24.45;;
21567;SDS011;10944;42.590;12.630;2022-12-24T11:31:33;35.28;;;21.75;;
21567;SDS011;10944;42.590;12.630;2022-12-24T11:34:16;32.67;;;20.77;;
21567;SDS011;10944;42.590;12.630;2022-12-24T11:36:45;31.58;;;19.83;;
21567;SDS011;10944;42.590;12.630;2022-12-24T11:39:18;37.17;;;21.88;;
21567;SDS011;10944;42.590;12.630;2022-12-24T11:41:46;27.83;;;19.70;;
21567;SDS011;10944;42.590;12.630;2022-12-24T11:44:24;25.90;;;18.17;;
21567;SDS011;10944;42.590;12.630;2022-12-24T11:46:51;26.67;;;17.92;;
21567;SDS011;10944;42.590;12.630;2022-12-24T11:52:12;25.27;;;17.20;;
21567;SDS011;10944;42.590;12.630;2022-12-24T12:00:25;32.10;;;21.60;;
21567;SDS011;10944;42.590;12.630;2022-12-24T12:02:52;28.92;;;20.27;;
21567;SDS011;10944;42.590;12.630;2022-12-24T12:05:25;29.73;;;20.63;;
21567;SDS011;10944;42.590;12.630;2022-12-24T12:07:57;30.15;;;20.90;;
21567;SDS011;10944;42.590;12.630;2022-12-24T12:10:41;28.40;;;20.45;;
21567;SDS011;10944;42.590;12.630;2022-12-24T12:13:13;34.28;;;23.38;;
21567;SDS011;10944;42.590;12.630;2022-12-24T12:15:50;31.10;;;22.05;;
21567;SDS011;10944;42.590;12.630;2022-12-24T12:18:25;32.33;;;22.02;;
21567;SDS011;10944;42.590;12.630;2022-12-24T12:20:59;34.15;;;22.67;;
21567;SDS011;10944;42.590;12.630;2022-12-24T12:23:48;32.38;;;23.27;;
21567;SDS011;10944;42.590;12.630;2022-12-24T12:26:27;29.30;;;21.40;;
21567;SDS011;10944;42.590;12.630;2022-12-24T12:28:57;32.10;;;21.30;;
21567;SDS011;10944;42.590;12.630;2022-12-24T12:31:34;52.25;;;33.78;;
21567;SDS011;10944;42.590;12.630;2022-12-24T12:34:21;46.17;;;31.88;;
21567;SDS011;10944;42.590;12.630;2022-12-24T12:37:17;50.20;;;32.60;;
21567;SDS011;10944;42.590;12.630;2022-12-24T12:39:48;37.28;;;26.40;;
21567;SDS011;10944;42.590;12.630;2022-12-24T12:50:28;33.42;;;21.60;;
21567;SDS011;10944;42.590;12.630;2022-12-24T12:53:09;29.90;;;20.25;;
21567;SDS011;10944;42.590;12.630;2022-12-24T12:58:53;32.50;;;19.60;;
21567;SDS011;10944;42.590;12.630;2022-12-24T13:01:40;35.67;;;20.65;;
21567;SDS011;10944;42.590;12.630;2022-12-24T13:12:17;20.17;;;10.20;;
21567;SDS011;10944;42.590;12.630;2022-12-24T13:15:19;15.68;;;8.13;;
21567;SDS011;10944;42.590;12.630;2022-12-24T13:20:51;27.05;;;15.05;;
21567;SDS011;10944;42.590;12.630;2022-12-24T13:23:18;24.50;;;13.35;;
21567;SDS011;10944;42.590;12.630;2022-12-24T13:25:50;24.63;;;14.75;;
21567;SDS011;10944;42.590;12.630;2022-12-24T13:30:47;29.95;;;18.10;;
21567;SDS011;10944;42.590;12.630;2022-12-24T13:36:03;26.20;;;18.88;;
21567;SDS011;10944;42.590;12.630;2022-12-24T13:41:35;31.80;;;20.95;;
21567;SDS011;10944;42.590;12.630;2022-12-24T13:46:49;33.72;;;19.58;;
21567;SDS011;10944;42.590;12.630;2022-12-24T13:49:41;25.65;;;18.27;;
21567;SDS011;10944;42.590;12.630;2022-12-24T14:05:37;28.70;;;18.10;;
21567;SDS011;10944;42.590;12.630;2022-12-24T14:08:08;25.80;;;17.50;;
21567;SDS011;10944;42.590;12.630;2022-12-24T14:18:29;29.63;;;17.90;;
21567;SDS011;10944;42.590;12.630;2022-12-24T14:20:58;28.77;;;17.83;;
21567;SDS011;10944;42.590;12.630;2022-12-24T14:26:13;29.35;;;17.05;;
21567;SDS011;10944;42.590;12.630;2022-12-24T14:28:43;25.33;;;17.25;;
21567;SDS011;10944;42.590;12.630;2022-12-24T14:31:30;29.98;;;17.38;;
21567;SDS011;10944;42.590;12.630;2022-12-24T14:34:11;23.92;;;17.40;;
21567;SDS011;10944;42.590;12.630;2022-12-24T14:36:37;31.25;;;19.42;;
21567;SDS011;10944;42.590;12.630;2022-12-24T14:39:07;32.35;;;19.90;;
21567;SDS011;10944;42.590;12.630;2022-12-24T14:47:00;31.88;;;19.70;;
21567;SDS011;10944;42.590;12.630;2022-12-24T14:55:30;36.10;;;19.40;;
21567;SDS011;10944;42.590;12.630;2022-12-24T15:00:53;30.27;;;19.45;;
21567;SDS011;10944;42.590;12.630;2022-12-24T15:03:39;26.85;;;18.85;;
21567;SDS011;10944;42.590;12.630;2022-12-24T15:06:05;34.88;;;19.90;;
21567;SDS011;10944;42.590;12.630;2022-12-24T15:08:43;30.65;;;19.75;;
21567;SDS011;10944;42.590;12.630;2022-12-24T15:11:16;35.03;;;21.85;;
21567;SDS011;10944;42.590;12.630;2022-12-24T15:13:45;34.83;;;22.60;;
21567;SDS011;10944;42.590;12.630;2022-12-24T15:16:21;38.70;;;23.98;;
21567;SDS011;10944;42.590;12.630;2022-12-24T15:19:12;41.78;;;24.48;;
21567;SDS011;10944;42.590;12.630;2022-12-24T15:21:45;44.63;;;28.23;;
21567;SDS011;10944;42.590;12.630;2022-12-24T15:24:30;49.33;;;29.30;;
21567;SDS011;10944;42.590;12.630;2022-12-24T15:27:10;46.58;;;28.60;;
21567;SDS011;10944;42.590;12.630;2022-12-24T15:29:56;44.42;;;29.63;;
21567;SDS011;10944;42.590;12.630;2022-12-24T15:32:22;47.53;;;27.23;;
21567;SDS011;10944;42.590;12.630;2022-12-24T15:34:52;38.58;;;25.48;;
21567;SDS011;10944;42.590;12.630;2022-12-24T15:37:20;42.10;;;23.63;;
21567;SDS011;10944;42.590;12.630;2022-12-24T15:39:53;67.63;;;40.13;;
21567;SDS011;10944;42.590;12.630;2022-12-24T15:42:33;20.70;;;12.20;;
21567;SDS011;10944;42.590;12.630;2022-12-24T15:45:01;22.73;;;12.80;;
21567;SDS011;10944;42.590;12.630;2022-12-24T15:47:52;18.85;;;10.30;;
21567;SDS011;10944;42.590;12.630;2022-12-24T15:50:31;20.55;;;9.57;;
21567;SDS011;10944;42.590;12.630;2022-12-24T15:53:14;14.82;;;8.20;;
21567;SDS011;10944;42.590;12.630;2022-12-24T15:55:46;20.35;;;10.80;;
21567;SDS011;10944;42.590;12.630;2022-12-24T15:58:37;15.23;;;9.00;;
21567;SDS011;10944;42.590;12.630;2022-12-24T16:03:33;18.40;;;9.02;;
21567;SDS011;10944;42.590;12.630;2022-12-24T16:06:03;20.33;;;8.55;;
21567;SDS011;10944;42.590;12.630;2022-12-24T16:08:40;15.38;;;8.40;;
21567;SDS011;10944;42.590;12.630;2022-12-24T16:13:34;13.63;;;7.40;;
21567;SDS011;10944;42.590;12.630;2022-12-24T16:16:07;16.85;;;7.13;;
21567;SDS011;10944;42.590;12.630;2022-12-24T16:18:36;15.18;;;6.35;;
21567;SDS011;10944;42.590;12.630;2022-12-24T16:21:05;11.38;;;5.93;;
21567;SDS011;10944;42.590;12.630;2022-12-24T16:23:43;14.15;;;5.50;;
21567;SDS011;10944;42.590;12.630;2022-12-24T16:26:11;15.25;;;6.15;;
21567;SDS011;10944;42.590;12.630;2022-12-24T16:28:36;19.15;;;6.95;;
21567;SDS011;10944;42.590;12.630;2022-12-24T16:31:02;12.48;;;6.20;;
21567;SDS011;10944;42.590;12.630;2022-12-24T16:33:28;14.43;;;7.40;;
21567;SDS011;10944;42.590;12.630;2022-12-24T16:35:54;16.45;;;9.10;;
21567;SDS011;10944;42.590;12.630;2022-12-24T16:38:20;19.42;;;10.02;;
21567;SDS011;10944;42.590;12.630;2022-12-24T16:40:46;17.80;;;9.50;;
21567;SDS011;10944;42.590;12.630;2022-12-24T16:43:12;21.92;;;9.65;;
21567;SDS011;10944;42.590;12.630;2022-12-24T16:46:01;17.25;;;7.82;;
21567;SDS011;10944;42.590;12.630;2022-12-24T16:48:28;19.33;;;7.60;;
21567;SDS011;10944;42.590;12.630;2022-12-24T16:50:54;15.27;;;7.38;;
21567;SDS011;10944;42.590;12.630;2022-12-24T16:53:21;19.17;;;7.78;;
21567;SDS011;10944;42.590;12.630;2022-12-24T16:55:47;15.68;;;6.95;;
21567;SDS011;10944;42.590;12.630;2022-12-24T16:58:15;13.05;;;6.80;;